LIPL/QBS METAR and TAF weather

Enter ICAO airport designator
Station Type Date Time Source
LIPL METAR 2019/04/25 08:55 UTC NOAA

LIPL 250855Z 13007KT 5000 BR BKN030 16/13 Q1018


Station Type Date Time Source
LIPL Decoded METAR 2019/04/25 08:55 UTC NOAA

Brescia / Ghedi, Italy (LIPL) 45-25N 010-17E 97M
Apr 25, 2019 - 04:55 AM EDT / 2019.04.25 0855 UTC
Wind: from the SE (130 degrees) at 8 MPH (7 KT):0
Visibility: 3 mile(s):0
Sky conditions: mostly cloudy
Weather: mist
Temperature: 60 F (16 C)
Dew Point: 55 F (13 C)
Relative Humidity: 82%
Pressure (altimeter): 30.06 in. Hg (1018 hPa)
ob: LIPL 250855Z 13007KT 5000 BR BKN030 16/13 Q1018
cycle: 9

Station Type Date Time Source
LIPL TAF 2018/06/14 09:48 UTC NOAA

TAF TAF LIPL 140800Z 1409/1421 VRB05KT 9999 SCT035 SCT080

Example: see airport list